createdAt,value
2022-12-29T00:00:21.882Z,41.25
2022-12-29T00:02:49.082Z,41.99
2022-12-29T00:05:18.105Z,42.58
2022-12-29T00:07:45.358Z,43.01
2022-12-29T00:10:12.505Z,43.45
2022-12-29T00:12:39.708Z,44.33
2022-12-29T00:15:08.870Z,44.01
2022-12-29T00:17:36.006Z,44.04
2022-12-29T00:20:04.146Z,44.11
2022-12-29T00:22:32.848Z,44.03
2022-12-29T00:25:02.219Z,43.97
2022-12-29T00:27:30.624Z,44.35
2022-12-29T00:29:58.995Z,44.26
2022-12-29T00:32:26.187Z,44.38
2022-12-29T00:34:53.308Z,44.37
2022-12-29T00:37:20.960Z,44.26
2022-12-29T00:39:49.680Z,44.91
2022-12-29T00:42:16.823Z,44.44
2022-12-29T00:44:44.720Z,44.08
2022-12-29T00:47:12.162Z,43.85
2022-12-29T00:49:39.324Z,44.20
2022-12-29T00:52:09.161Z,44.59
2022-12-29T00:54:38.249Z,44.28
2022-12-29T00:57:09.183Z,44.40
2022-12-29T00:59:36.970Z,44.45
2022-12-29T01:02:04.483Z,44.42
2022-12-29T01:04:32.704Z,43.91
2022-12-29T01:07:00.290Z,43.00
2022-12-29T01:09:27.622Z,42.23
2022-12-29T01:11:57.359Z,41.31
2022-12-29T01:14:29.306Z,40.42
2022-12-29T01:16:57.776Z,41.01
2022-12-29T01:19:25.766Z,40.42
2022-12-29T01:21:53.243Z,40.18
2022-12-29T01:24:21.786Z,40.42
2022-12-29T01:26:49.955Z,40.69
2022-12-29T01:29:17.506Z,41.02
2022-12-29T01:31:48.137Z,42.15
2022-12-29T01:34:15.402Z,42.38
2022-12-29T01:36:43.423Z,42.45
2022-12-29T01:39:11.029Z,43.04
2022-12-29T01:41:38.220Z,43.27
2022-12-29T01:44:38.365Z,43.44
2022-12-29T01:47:09.806Z,43.51
2022-12-29T01:49:37.145Z,43.48
2022-12-29T01:52:08.643Z,43.22
2022-12-29T01:54:42.272Z,43.73
2022-12-29T01:57:14.585Z,43.60
2022-12-29T01:59:50.183Z,43.73
2022-12-29T02:02:19.269Z,44.08
2022-12-29T02:04:47.400Z,44.01
2022-12-29T02:07:19.777Z,44.00
2022-12-29T02:09:50.267Z,44.33
2022-12-29T02:12:21.043Z,44.48
2022-12-29T02:14:55.823Z,44.76
2022-12-29T02:17:42.944Z,44.39
2022-12-29T02:20:48.621Z,44.29
2022-12-29T02:23:54.283Z,43.83
2022-12-29T02:26:40.224Z,44.08
2022-12-29T02:29:41.351Z,44.00
2022-12-29T02:32:19.904Z,43.85
2022-12-29T02:34:56.222Z,43.37
2022-12-29T02:37:31.010Z,43.78
2022-12-29T02:40:07.316Z,43.37
2022-12-29T02:42:47.320Z,41.61
2022-12-29T02:45:22.803Z,42.02
2022-12-29T02:48:02.848Z,41.67
2022-12-29T02:50:39.520Z,48.24
2022-12-29T02:53:12.007Z,45.58
2022-12-29T02:55:39.082Z,46.52
2022-12-29T02:58:17.727Z,44.82
2022-12-29T03:00:58.864Z,44.42
2022-12-29T03:03:47.427Z,45.41
2022-12-29T03:06:32.671Z,44.88
2022-12-29T03:09:19.138Z,44.54
2022-12-29T03:11:59.281Z,44.50
2022-12-29T03:14:34.339Z,43.02
2022-12-29T03:17:09.677Z,42.44
2022-12-29T03:19:45.481Z,41.86
2022-12-29T03:22:19.116Z,40.69
2022-12-29T03:24:52.063Z,40.89
2022-12-29T03:27:24.318Z,40.43
2022-12-29T03:29:56.181Z,40.16
2022-12-29T03:32:28.409Z,39.94
2022-12-29T03:34:59.676Z,39.77
2022-12-29T03:37:32.260Z,39.74
2022-12-29T03:39:59.944Z,38.65
2022-12-29T03:42:32.456Z,39.29
2022-12-29T03:44:59.602Z,37.64
2022-12-29T03:47:27.381Z,38.13
2022-12-29T03:49:55.942Z,37.66
2022-12-29T03:52:23.057Z,37.49
2022-12-29T03:54:50.203Z,38.12
2022-12-29T03:57:17.275Z,36.10
2022-12-29T03:59:44.301Z,37.12
2022-12-29T04:02:11.680Z,35.57
2022-12-29T04:04:39.077Z,36.44
2022-12-29T04:07:07.680Z,36.40
2022-12-29T04:09:34.819Z,34.69
2022-12-29T04:12:01.943Z,35.39
2022-12-29T04:14:29.178Z,34.07
2022-12-29T04:16:56.299Z,35.18
2022-12-29T04:19:23.458Z,34.28
2022-12-29T04:21:50.693Z,34.21
2022-12-29T04:24:19.386Z,34.71
2022-12-29T04:26:46.729Z,35.29
2022-12-29T04:29:13.926Z,34.93
2022-12-29T04:31:41.582Z,35.37
2022-12-29T04:34:09.302Z,35.91
2022-12-29T04:36:36.480Z,34.66
2022-12-29T04:39:03.750Z,35.69
2022-12-29T04:41:32.539Z,35.47
2022-12-29T04:43:59.803Z,36.05
2022-12-29T04:46:26.913Z,35.51
2022-12-29T04:48:54.046Z,36.03
2022-12-29T04:51:21.221Z,36.46
2022-12-29T04:53:48.378Z,36.69
2022-12-29T04:56:15.581Z,37.00
2022-12-29T04:58:44.238Z,37.78
2022-12-29T05:01:11.442Z,38.20
2022-12-29T05:03:38.693Z,38.19
2022-12-29T05:06:06.640Z,38.36
2022-12-29T05:08:34.725Z,38.21
2022-12-29T05:11:02.021Z,38.98
2022-12-29T05:13:29.217Z,38.90
2022-12-29T05:15:57.823Z,38.50
2022-12-29T05:18:25.117Z,38.88
2022-12-29T05:20:52.404Z,38.07
2022-12-29T05:23:19.501Z,38.84
2022-12-29T05:25:46.619Z,38.98
2022-12-29T05:28:14.240Z,38.92
2022-12-29T05:30:41.849Z,39.14
2022-12-29T05:33:10.438Z,38.83
2022-12-29T05:35:37.571Z,39.38
2022-12-29T05:38:04.618Z,39.45
2022-12-29T05:40:31.760Z,39.67
2022-12-29T05:43:00.184Z,40.34
2022-12-29T05:45:27.440Z,40.15
2022-12-29T05:47:54.619Z,40.35
2022-12-29T05:50:23.268Z,40.77
2022-12-29T05:52:50.450Z,40.69
2022-12-29T05:55:17.709Z,40.54
2022-12-29T05:57:45.819Z,40.24
2022-12-29T06:00:14.490Z,40.13
2022-12-29T06:02:42.324Z,39.87
2022-12-29T06:05:10.321Z,38.43
2022-12-29T06:07:38.900Z,38.72
2022-12-29T06:10:07.381Z,37.57
2022-12-29T06:12:34.478Z,38.45
2022-12-29T06:15:01.581Z,37.97
2022-12-29T06:17:28.718Z,38.33
2022-12-29T06:19:55.878Z,38.77
2022-12-29T06:22:23.027Z,38.22
2022-12-29T06:24:51.944Z,37.91
2022-12-29T06:27:19.043Z,39.31
2022-12-29T06:29:46.205Z,38.09
2022-12-29T06:32:13.345Z,37.68
2022-12-29T06:34:41.310Z,37.25
2022-12-29T06:37:09.617Z,39.43
2022-12-29T06:39:36.713Z,38.40
2022-12-29T06:42:05.633Z,35.47
2022-12-29T06:44:32.731Z,37.54
2022-12-29T06:46:59.929Z,38.09
2022-12-29T06:49:27.052Z,36.61
2022-12-29T06:51:54.233Z,37.23
2022-12-29T06:54:21.457Z,36.78
2022-12-29T06:56:48.635Z,35.79
2022-12-29T06:59:17.153Z,35.43
2022-12-29T07:01:44.714Z,36.07
2022-12-29T07:04:11.939Z,35.76
2022-12-29T07:06:39.238Z,36.45
2022-12-29T07:09:06.419Z,33.06
2022-12-29T07:11:33.661Z,35.68
2022-12-29T07:14:04.168Z,35.47
2022-12-29T07:16:33.265Z,35.13
2022-12-29T07:19:01.339Z,34.72
2022-12-29T07:21:28.357Z,34.83
2022-12-29T07:23:56.099Z,34.81
2022-12-29T07:26:23.437Z,33.17
2022-12-29T07:28:50.536Z,34.87
2022-12-29T07:31:20.243Z,34.13
2022-12-29T07:33:49.277Z,33.43
2022-12-29T07:36:17.820Z,34.65
2022-12-29T07:38:45.061Z,33.25
2022-12-29T07:41:12.571Z,35.09
2022-12-29T07:43:40.023Z,35.48
2022-12-29T07:46:07.300Z,32.99
2022-12-29T07:48:34.386Z,35.43
2022-12-29T07:51:03.057Z,35.19
2022-12-29T07:53:30.215Z,35.70
2022-12-29T07:55:57.761Z,35.02
2022-12-29T07:58:25.016Z,35.72
2022-12-29T08:00:54.796Z,35.97
2022-12-29T08:03:22.214Z,35.09
2022-12-29T08:05:49.607Z,35.32
2022-12-29T08:08:18.297Z,35.63
2022-12-29T08:10:45.583Z,34.83
2022-12-29T08:13:12.777Z,35.83
2022-12-29T08:15:40.082Z,35.57
2022-12-29T08:18:07.377Z,35.64
2022-12-29T08:20:34.593Z,35.44
2022-12-29T08:23:01.674Z,35.36
2022-12-29T08:25:30.280Z,35.49
2022-12-29T08:27:57.457Z,35.27
2022-12-29T08:30:24.740Z,34.61
2022-12-29T08:32:51.923Z,35.21
2022-12-29T08:35:19.063Z,35.18
2022-12-29T08:37:46.256Z,34.55
2022-12-29T08:40:13.458Z,34.16
2022-12-29T08:42:42.121Z,34.79
2022-12-29T08:45:10.214Z,35.27
2022-12-29T08:47:37.447Z,35.80
2022-12-29T08:50:05.985Z,36.09
2022-12-29T08:52:33.233Z,36.30
2022-12-29T08:55:00.358Z,36.69
2022-12-29T08:57:27.757Z,37.82
2022-12-29T08:59:56.455Z,37.81
2022-12-29T09:02:24.559Z,37.85
2022-12-29T09:04:52.746Z,37.79
2022-12-29T09:07:20.053Z,37.57
2022-12-29T09:09:47.299Z,38.10
2022-12-29T09:12:14.410Z,38.49
2022-12-29T09:14:41.509Z,38.49
2022-12-29T09:17:10.339Z,38.61
2022-12-29T09:19:37.887Z,38.25
2022-12-29T09:22:05.171Z,37.59
2022-12-29T09:24:32.466Z,36.03
2022-12-29T09:26:59.908Z,44.99
2022-12-29T09:29:27.010Z,37.64
2022-12-29T09:31:54.365Z,37.69
2022-12-29T09:34:23.475Z,36.16
2022-12-29T09:36:51.255Z,38.86
2022-12-29T09:39:18.554Z,36.05
2022-12-29T09:41:53.915Z,38.10
2022-12-29T09:44:30.909Z,36.14
2022-12-29T09:47:00.297Z,36.97
2022-12-29T09:49:40.078Z,38.02
2022-12-29T09:52:16.584Z,37.66
2022-12-29T09:55:00.541Z,38.34
2022-12-29T09:57:37.490Z,37.04
2022-12-29T10:00:12.674Z,38.41
2022-12-29T10:02:44.883Z,38.55
2022-12-29T10:05:28.168Z,39.15
2022-12-29T10:08:13.974Z,38.84
2022-12-29T10:10:54.875Z,38.55
2022-12-29T10:13:37.114Z,38.79
2022-12-29T10:16:13.310Z,38.15
2022-12-29T10:19:11.367Z,38.18
2022-12-29T10:21:57.966Z,38.78
2022-12-29T10:24:29.929Z,38.17
2022-12-29T10:27:00.586Z,38.72
2022-12-29T10:29:37.547Z,38.28
2022-12-29T10:32:14.482Z,38.83
2022-12-29T10:34:51.141Z,38.57
2022-12-29T10:37:34.570Z,37.14
2022-12-29T10:40:15.233Z,38.24
2022-12-29T10:42:47.306Z,38.56
2022-12-29T10:45:17.821Z,38.56
2022-12-29T10:47:54.840Z,39.07
2022-12-29T10:50:22.225Z,37.66
2022-12-29T10:52:52.484Z,39.01
2022-12-29T10:55:26.133Z,39.16
2022-12-29T10:57:53.804Z,38.63
2022-12-29T11:00:23.006Z,39.35
2022-12-29T11:03:27.901Z,39.02
2022-12-29T11:06:03.135Z,37.73
2022-12-29T11:08:37.717Z,37.85
2022-12-29T11:11:06.941Z,37.43
2022-12-29T11:13:39.200Z,38.72
2022-12-29T11:16:07.232Z,36.17
2022-12-29T11:18:37.939Z,36.78
2022-12-29T11:21:07.958Z,37.42
2022-12-29T11:23:39.165Z,37.91
2022-12-29T11:26:30.146Z,37.42
2022-12-29T11:29:24.681Z,38.18
2022-12-29T11:31:54.018Z,36.68
2022-12-29T11:34:24.261Z,37.79
2022-12-29T11:36:55.047Z,36.98
2022-12-29T11:39:39.583Z,36.80
2022-12-29T11:42:15.281Z,36.86
2022-12-29T11:44:47.119Z,36.11
2022-12-29T11:47:24.896Z,35.40
2022-12-29T11:49:58.062Z,36.63
2022-12-29T11:52:29.425Z,36.26
2022-12-29T11:54:58.963Z,36.63
2022-12-29T11:57:27.225Z,36.96
2022-12-29T11:59:56.006Z,37.19
2022-12-29T12:02:43.727Z,36.71
2022-12-29T12:05:26.623Z,37.36
2022-12-29T12:08:00.961Z,37.83
2022-12-29T12:10:36.200Z,37.48
2022-12-29T12:13:15.765Z,38.29
2022-12-29T12:15:56.418Z,38.20
2022-12-29T12:18:35.823Z,38.81
2022-12-29T12:21:11.862Z,39.85
2022-12-29T12:24:02.603Z,40.83
2022-12-29T12:26:38.138Z,42.36
2022-12-29T12:29:16.917Z,41.64
2022-12-29T12:31:50.670Z,42.68
2022-12-29T12:34:25.860Z,42.00
2022-12-29T12:37:13.913Z,42.60
2022-12-29T12:39:53.992Z,43.84
2022-12-29T12:42:42.866Z,44.23
2022-12-29T12:45:44.909Z,44.75
2022-12-29T12:48:34.757Z,46.33
2022-12-29T12:51:17.003Z,45.80
2022-12-29T12:54:07.328Z,46.12
2022-12-29T12:56:53.143Z,46.42
2022-12-29T12:59:38.419Z,46.85
2022-12-29T13:02:25.096Z,47.84
2022-12-29T13:05:20.042Z,47.67
2022-12-29T13:08:07.944Z,48.08
2022-12-29T13:10:45.927Z,48.03
2022-12-29T13:13:50.568Z,47.92
2022-12-29T13:16:30.622Z,48.08
2022-12-29T13:19:05.031Z,47.64
2022-12-29T13:22:00.095Z,48.08
2022-12-29T13:24:45.834Z,48.51
2022-12-29T13:27:23.997Z,47.62
2022-12-29T13:30:02.996Z,48.24
2022-12-29T13:32:51.596Z,48.28
2022-12-29T13:35:36.975Z,48.33
2022-12-29T13:38:13.429Z,48.63
2022-12-29T13:40:47.857Z,48.36
2022-12-29T13:43:18.940Z,47.23
2022-12-29T13:45:56.771Z,47.74
2022-12-29T13:48:40.965Z,48.28
2022-12-29T13:51:11.168Z,47.71
2022-12-29T13:53:56.082Z,47.02
2022-12-29T13:56:33.197Z,44.82
2022-12-29T13:59:13.134Z,44.82
2022-12-29T14:01:49.796Z,45.48
2022-12-29T14:04:24.554Z,45.17
2022-12-29T14:07:03.262Z,45.39
2022-12-29T14:09:46.874Z,45.74
2022-12-29T14:12:37.896Z,46.21
2022-12-29T14:15:25.509Z,46.83
2022-12-29T14:18:13.236Z,46.92
2022-12-29T14:20:53.219Z,47.82
2022-12-29T14:23:39.035Z,48.32
2022-12-29T14:26:15.985Z,48.42
2022-12-29T14:28:45.337Z,48.46
2022-12-29T14:31:37.157Z,48.81
2022-12-29T14:34:39.535Z,49.48
2022-12-29T14:37:26.984Z,49.42
2022-12-29T14:40:07.677Z,49.65
2022-12-29T14:42:35.176Z,49.54
2022-12-29T14:45:08.846Z,49.45
2022-12-29T14:47:39.407Z,49.00
2022-12-29T14:50:09.667Z,49.19
2022-12-29T14:52:49.040Z,49.53
2022-12-29T14:55:41.359Z,49.75
2022-12-29T14:58:18.632Z,49.09
2022-12-29T15:00:47.765Z,49.27
2022-12-29T15:03:20.826Z,48.82
2022-12-29T15:05:52.758Z,49.04
2022-12-29T15:08:25.797Z,49.00
2022-12-29T15:10:58.071Z,48.35
2022-12-29T15:13:35.515Z,48.40
2022-12-29T15:16:02.911Z,47.29
2022-12-29T15:18:32.404Z,46.19
2022-12-29T15:21:03.176Z,48.08
2022-12-29T15:23:35.604Z,47.72
2022-12-29T15:26:08.407Z,47.60
2022-12-29T15:28:41.481Z,47.32
2022-12-29T15:31:15.345Z,47.09
2022-12-29T15:33:46.355Z,47.74
2022-12-29T15:36:19.056Z,47.89
2022-12-29T15:38:48.172Z,49.12
2022-12-29T15:41:30.931Z,48.62
2022-12-29T15:44:15.550Z,48.24
2022-12-29T15:46:42.784Z,48.17
2022-12-29T15:49:14.925Z,47.76
2022-12-29T15:51:43.328Z,46.51
2022-12-29T15:54:19.283Z,47.01
2022-12-29T15:56:48.933Z,47.10
2022-12-29T15:59:25.950Z,47.73
2022-12-29T16:01:54.511Z,48.65
2022-12-29T16:04:22.825Z,49.31
2022-12-29T16:06:59.016Z,48.40
2022-12-29T16:09:35.346Z,49.11
2022-12-29T16:12:07.505Z,49.31
2022-12-29T16:14:42.343Z,49.14
2022-12-29T16:17:17.567Z,49.70
2022-12-29T16:19:52.684Z,50.09
2022-12-29T16:22:28.936Z,49.63
2022-12-29T16:25:04.812Z,48.34
2022-12-29T16:27:40.843Z,49.06
2022-12-29T16:30:20.906Z,49.75
2022-12-29T16:32:49.438Z,49.51
2022-12-29T16:35:21.353Z,48.86
2022-12-29T16:37:49.692Z,49.03
2022-12-29T16:40:31.401Z,49.27
2022-12-29T16:43:01.025Z,49.81
2022-12-29T16:46:06.276Z,50.17
2022-12-29T16:48:37.687Z,50.58
2022-12-29T16:51:13.823Z,49.96
2022-12-29T16:53:48.261Z,50.10
2022-12-29T16:56:20.161Z,50.45
2022-12-29T16:58:50.059Z,49.91
2022-12-29T17:01:17.505Z,50.21
2022-12-29T17:03:51.280Z,50.69
2022-12-29T17:06:20.423Z,50.70
2022-12-29T17:08:48.977Z,50.86
2022-12-29T17:11:30.682Z,50.05
2022-12-29T17:13:57.922Z,51.22
2022-12-29T17:16:25.152Z,50.52
2022-12-29T17:18:53.083Z,50.64
2022-12-29T17:21:20.221Z,50.78
2022-12-29T17:23:47.345Z,50.24
2022-12-29T17:26:14.601Z,49.57
2022-12-29T17:28:43.461Z,49.96
2022-12-29T17:31:12.329Z,50.15
2022-12-29T17:33:41.045Z,49.68
2022-12-29T17:36:09.680Z,49.96
2022-12-29T17:38:36.981Z,49.54
2022-12-29T17:41:04.850Z,50.06
2022-12-29T17:43:37.040Z,48.90
2022-12-29T17:46:08.085Z,49.21
2022-12-29T17:48:35.467Z,50.14
2022-12-29T17:51:02.860Z,50.08
2022-12-29T17:53:31.321Z,50.56
2022-12-29T17:55:58.639Z,50.53
2022-12-29T17:58:28.560Z,50.11
2022-12-29T18:00:58.842Z,50.79
2022-12-29T18:03:31.120Z,50.56
2022-12-29T18:05:59.255Z,50.49
2022-12-29T18:08:26.542Z,50.31
2022-12-29T18:10:55.404Z,50.51
2022-12-29T18:13:27.187Z,50.99
2022-12-29T18:15:57.709Z,50.77
2022-12-29T18:18:28.628Z,54.88
2022-12-29T18:20:59.923Z,50.72
2022-12-29T18:23:29.407Z,50.96
2022-12-29T18:26:01.736Z,51.12
2022-12-29T18:28:29.659Z,51.22
2022-12-29T18:30:59.150Z,51.40
2022-12-29T18:33:29.594Z,50.97
2022-12-29T18:35:59.046Z,51.31
2022-12-29T18:38:26.602Z,51.27
2022-12-29T18:40:54.435Z,51.61
2022-12-29T18:43:21.866Z,51.22
2022-12-29T18:45:49.552Z,51.49
2022-12-29T18:48:19.048Z,51.69
2022-12-29T18:50:49.143Z,51.15
2022-12-29T18:53:18.103Z,50.84
2022-12-29T18:55:47.083Z,51.28
2022-12-29T18:58:15.047Z,50.85
2022-12-29T19:00:43.455Z,51.10
2022-12-29T19:03:13.819Z,51.29
2022-12-29T19:05:42.879Z,51.19
2022-12-29T19:08:12.791Z,50.88
2022-12-29T19:10:43.456Z,51.17
2022-12-29T19:13:16.485Z,50.63
2022-12-29T19:15:44.502Z,50.96
2022-12-29T19:18:47.434Z,50.54
2022-12-29T19:21:06.154Z,50.93
2022-12-29T19:23:34.798Z,50.78
2022-12-29T19:26:01.913Z,50.61
2022-12-29T19:28:29.844Z,51.22
2022-12-29T19:31:01.428Z,51.54
2022-12-29T19:33:29.192Z,51.28
2022-12-29T19:36:00.745Z,51.12
2022-12-29T19:38:28.093Z,51.33
2022-12-29T19:40:57.246Z,51.41
2022-12-29T19:43:24.782Z,51.08
2022-12-29T19:45:52.359Z,51.13
2022-12-29T19:48:23.014Z,51.12
2022-12-29T19:50:50.473Z,51.75
2022-12-29T19:53:17.690Z,51.54
2022-12-29T19:55:46.212Z,51.65
2022-12-29T19:58:16.073Z,51.55
2022-12-29T20:00:43.877Z,51.42
2022-12-29T20:03:12.450Z,50.81
2022-12-29T20:05:40.833Z,50.87
2022-12-29T20:08:09.772Z,50.98
2022-12-29T20:10:37.341Z,50.80
2022-12-29T20:13:04.714Z,51.45
2022-12-29T20:15:33.428Z,51.64
2022-12-29T20:18:16.302Z,52.25
2022-12-29T20:20:43.574Z,51.53
2022-12-29T20:23:11.439Z,51.26
2022-12-29T20:25:47.168Z,51.49
2022-12-29T20:28:16.329Z,51.90
2022-12-29T20:30:45.133Z,52.10
2022-12-29T20:33:13.036Z,51.79
2022-12-29T20:35:40.217Z,51.48
2022-12-29T20:38:07.472Z,51.53
2022-12-29T20:40:44.139Z,50.92
2022-12-29T20:43:15.830Z,51.61
2022-12-29T20:45:44.740Z,51.83
2022-12-29T20:48:12.250Z,52.14
2022-12-29T20:50:39.911Z,52.29
2022-12-29T20:53:07.031Z,51.80
2022-12-29T20:55:34.802Z,52.74
2022-12-29T21:00:50.975Z,52.64
2022-12-29T21:03:18.511Z,52.00
2022-12-29T21:05:45.929Z,52.46
2022-12-29T21:08:13.189Z,52.70
2022-12-29T21:10:40.505Z,52.63
2022-12-29T21:13:07.631Z,52.33
2022-12-29T21:15:34.888Z,51.86
2022-12-29T21:18:03.714Z,51.95
2022-12-29T21:20:31.175Z,52.25
2022-12-29T21:22:59.625Z,51.76
2022-12-29T21:25:27.973Z,51.87
2022-12-29T21:27:55.111Z,51.30
2022-12-29T21:30:22.230Z,52.20
2022-12-29T21:32:49.849Z,51.24
2022-12-29T21:35:18.692Z,51.68
2022-12-29T21:37:45.931Z,52.17
2022-12-29T21:40:13.310Z,52.10
2022-12-29T21:42:40.450Z,52.02
2022-12-29T21:45:11.965Z,51.52
2022-12-29T21:47:42.493Z,52.09
2022-12-29T21:50:09.719Z,51.94
2022-12-29T21:52:38.330Z,51.76
2022-12-29T21:55:06.698Z,52.07
2022-12-29T21:57:34.191Z,51.98
2022-12-29T22:00:01.869Z,63.69
2022-12-29T22:02:29.219Z,55.24
2022-12-29T22:04:56.650Z,46.53
2022-12-29T22:07:23.994Z,46.88
2022-12-29T22:09:53.389Z,47.80
2022-12-29T22:12:20.817Z,48.25
2022-12-29T22:14:47.970Z,48.95
2022-12-29T22:17:16.163Z,49.69
2022-12-29T22:19:46.256Z,50.48
2022-12-29T22:22:13.512Z,50.83
2022-12-29T22:24:40.690Z,51.18
2022-12-29T22:27:09.773Z,51.09
2022-12-29T22:29:37.435Z,51.39
2022-12-29T22:32:05.331Z,51.52
2022-12-29T22:34:32.788Z,51.93
2022-12-29T22:37:00.092Z,51.78
2022-12-29T22:39:27.268Z,52.14
2022-12-29T22:41:54.449Z,51.96
2022-12-29T22:44:24.270Z,52.35
2022-12-29T22:46:51.507Z,52.21
2022-12-29T22:49:19.679Z,53.33
2022-12-29T22:51:46.812Z,53.32
2022-12-29T22:54:14.177Z,52.97
2022-12-29T22:56:41.820Z,52.11
2022-12-29T22:59:10.288Z,52.06
2022-12-29T23:01:39.874Z,52.61
2022-12-29T23:04:57.243Z,52.56
2022-12-29T23:06:54.790Z,52.79
2022-12-29T23:09:23.169Z,52.93
2022-12-29T23:11:50.829Z,52.49
2022-12-29T23:14:18.112Z,52.39
2022-12-29T23:16:46.952Z,52.54
2022-12-29T23:19:15.272Z,52.27
2022-12-29T23:21:42.407Z,52.23
2022-12-29T23:24:13.854Z,52.31
2022-12-29T23:26:44.051Z,52.04
2022-12-29T23:29:14.889Z,52.37
2022-12-29T23:31:42.691Z,51.85
2022-12-29T23:34:13.813Z,51.87
2022-12-29T23:36:41.212Z,51.93
2022-12-29T23:39:09.390Z,52.12
2022-12-29T23:41:37.549Z,52.41
2022-12-29T23:44:04.953Z,51.59
2022-12-29T23:46:32.199Z,51.35
2022-12-29T23:48:59.810Z,51.23
2022-12-29T23:51:28.736Z,51.23
2022-12-29T23:53:55.909Z,50.98
2022-12-29T23:56:24.311Z,51.49
2022-12-29T23:58:52.290Z,51.46
